Time;durP1;ratioP1;P1;durP2;ratioP2;P2;SDS_P1;SDS_P2;PMS_P1;PMS_P2;Temp;Humidity;BMP_temperature;BMP_pressure;BME280_temperature;BME280_humidity;BME280_pressure;Samples;Min_cycle;Max_cycle;Signal;HPM_P1;HPM_P2
2023/01/12 00:01:42;;;;;;;12.60;4.50;;;;;;;5.34;62.61;102418.50;109612;1265;1002373;-58
2023/01/12 00:04:11;;;;;;;13.70;4.30;;;;;;;5.36;62.62;102421.84;110139;1267;1002945;-58
2023/01/12 00:06:38;;;;;;;12.40;4.20;;;;;;;5.38;62.79;102425.67;110525;1274;22125;-58
2023/01/12 00:09:06;;;;;;;10.00;4.00;;;;;;;5.38;62.63;102424.29;109810;1274;1002341;-58
2023/01/12 00:11:34;;;;;;;13.40;4.30;;;;;;;5.39;62.70;102428.28;110588;1267;22315;-58
2023/01/12 00:14:01;;;;;;;14.10;6.00;;;;;;;5.40;62.78;102425.23;110212;1274;22437;-58
2023/01/12 00:16:34;;;;;;;10.10;3.80;;;;;;;5.42;62.54;102426.14;110205;1264;23453;-58
2023/01/12 00:19:22;;;;;;;9.60;4.00;;;;;;;5.42;62.57;102429.23;109806;1269;1002322;-57
2023/01/12 00:22:01;;;;;;;12.60;4.50;;;;;;;5.41;62.44;102429.39;110599;1267;22438;-58
2023/01/12 00:24:33;;;;;;;14.60;4.00;;;;;;;5.42;62.69;102430.95;110383;1267;22443;-58
2023/01/12 00:27:00;;;;;;;;;;;;;;;5.43;62.60;102422.88;110572;1268;22439;-58
2023/01/12 00:29:27;;;;;;;11.60;3.50;;;;;;;5.43;62.49;102423.40;110575;1270;23245;-57
2023/01/12 00:31:55;;;;;;;7.70;3.20;;;;;;;5.40;62.71;102416.45;109842;1267;1002487;-58
2023/01/12 00:34:22;;;;;;;7.30;3.50;;;;;;;5.39;62.88;102415.23;110174;1274;22438;-58
2023/01/12 00:36:49;;;;;;;13.00;4.20;;;;;;;5.40;62.96;102412.30;110574;1267;22422;-58
2023/01/12 00:39:16;;;;;;;6.80;3.20;;;;;;;5.41;62.97;102408.02;110555;1267;22564;-59
2023/01/12 00:47:15;;;;;;;8.90;3.50;;;;;;;5.43;62.88;102405.00;110565;1269;22359;-58
2023/01/12 00:49:42;;;;;;;6.80;2.80;;;;;;;5.45;62.75;102403.83;110573;1274;22385;-58
2023/01/12 00:52:10;;;;;;;8.90;3.30;;;;;;;5.46;62.69;102399.39;110317;1274;22426;-58
2023/01/12 00:54:51;;;;;;;8.90;3.10;;;;;;;5.46;62.71;102397.15;109813;1271;1002475;-58
2023/01/12 00:57:18;;;;;;;11.50;3.80;;;;;;;5.46;62.86;102400.24;110603;1269;22137;-58
2023/01/12 00:59:46;;;;;;;6.90;3.10;;;;;;;5.47;62.93;102394.59;110522;1274;22444;-58
2023/01/12 08:06:10;;;;;;;16.60;5.40;;;;;;;4.61;74.14;102400.50;104808;1288;22671;-58
2023/01/12 08:08:37;;;;;;;19.00;5.70;;;;;;;4.71;73.45;102408.36;105934;1284;25413;-58
2023/01/12 08:11:07;;;;;;;18.70;5.10;;;;;;;4.79;72.75;102402.25;105898;1284;25358;-59
2023/01/12 08:13:34;;;;;;;17.10;6.70;;;;;;;4.87;72.54;102397.14;106121;1278;226866;-58
2023/01/12 08:16:05;;;;;;;22.40;6.10;;;;;;;4.95;72.00;102399.23;106301;1281;25372;-58
2023/01/12 08:18:55;;;;;;;17.30;4.70;;;;;;;5.03;71.56;102398.05;105944;1285;24357;-58
2023/01/12 08:21:24;;;;;;;18.90;5.90;;;;;;;5.10;71.16;102402.20;106322;1282;24356;-58
2023/01/12 08:23:53;;;;;;;13.70;4.80;;;;;;;5.16;70.86;102396.52;106276;1279;25465;-59
2023/01/12 08:26:23;;;;;;;21.40;5.90;;;;;;;5.20;70.61;102390.63;105622;1278;1003491;-58
2023/01/12 08:28:57;;;;;;;20.50;5.30;;;;;;;5.27;70.12;102397.33;105514;1282;1002957;-58
2023/01/12 08:31:24;;;;;;;16.50;6.00;;;;;;;5.32;69.75;102401.76;106388;1278;25414;-58
2023/01/12 08:33:52;;;;;;;21.10;7.10;;;;;;;5.36;69.54;102403.40;106331;1280;22537;-58
2023/01/12 08:36:19;;;;;;;16.60;5.70;;;;;;;5.41;69.21;102405.45;106331;1279;22535;-58
2023/01/12 08:38:46;;;;;;;23.60;5.60;;;;;;;5.46;69.15;102406.11;105993;1280;22601;-58
2023/01/12 08:41:32;;;;;;;22.60;5.50;;;;;;;5.52;68.85;102403.66;106065;1272;1005639;-58
2023/01/12 08:44:01;;;;;;;17.60;4.60;;;;;;;5.56;68.38;102399.81;106594;1275;24203;-58
2023/01/12 08:46:48;;;;;;;22.30;4.60;;;;;;;5.59;68.10;102393.86;106850;1272;25451;-58
2023/01/12 08:49:17;;;;;;;17.70;5.20;;;;;;;5.61;67.94;102391.33;106841;1272;25338;-58
2023/01/12 08:51:44;;;;;;;18.70;6.20;;;;;;;5.63;67.72;102394.98;106807;1272;22541;-59
2023/01/12 08:54:13;;;;;;;12.50;5.30;;;;;;;5.64;67.60;102394.34;106623;1278;22537;-58
2023/01/12 08:56:40;;;;;;;21.00;4.70;;;;;;;5.65;67.44;102392.79;106748;1271;25486;-58
2023/01/12 08:59:07;;;;;;;23.10;6.10;;;;;;;5.67;67.29;102391.45;106934;1268;25345;-58
2023/01/12 09:01:35;;;;;;;19.90;6.00;;;;;;;5.68;67.14;102389.09;106895;1273;25337;-59
2023/01/12 09:04:04;;;;;;;18.20;5.90;;;;;;;5.69;66.90;102395.48;106764;1269;22531;-58
2023/01/12 09:06:35;;;;;;;17.20;5.40;;;;;;;5.70;66.75;102396.19;107102;1269;22543;-59
2023/01/12 09:09:03;;;;;;;;;;;;;;;5.71;66.55;102385.55;106886;1274;25499;-58
2023/01/12 09:11:31;;;;;;;14.70;5.40;;;;;;;5.70;66.46;102378.45;106903;1273;25338;-58
2023/01/12 09:13:58;;;;;;;25.10;6.60;;;;;;;5.70;66.49;102378.45;106998;1272;22513;-58
2023/01/12 09:16:27;;;;;;;22.10;8.40;;;;;;;5.71;66.36;102384.52;106131;1275;1003549;-58
2023/01/12 09:18:55;;;;;;;17.40;7.70;;;;;;;5.74;66.08;102384.23;106624;1274;22520;-58
2023/01/12 09:21:24;;;;;;;24.30;6.70;;;;;;;5.76;66.00;102379.81;106615;1274;25497;-59
2023/01/12 09:23:51;;;;;;;19.30;6.90;;;;;;;5.77;65.81;102375.34;106690;1272;24259;-59
2023/01/12 09:26:30;;;;;;;21.80;6.40;;;;;;;5.77;65.83;102377.25;106724;1274;22523;-60
2023/01/12 09:28:58;;;;;;;17.50;4.80;;;;;;;5.80;65.69;102386.44;106626;1270;25344;-59
2023/01/12 09:31:27;;;;;;;27.30;5.30;;;;;;;5.81;65.57;102388.02;106575;1273;25373;-57
2023/01/12 09:33:54;;;;;;;23.80;5.40;;;;;;;5.84;65.65;102395.16;106704;1273;22531;-57
2023/01/12 09:36:29;;;;;;;15.60;5.20;;;;;;;5.84;65.65;102392.06;106361;1269;22536;-57
2023/01/12 09:38:57;;;;;;;27.90;4.90;;;;;;;5.85;65.49;102388.16;106611;1276;22539;-57
2023/01/12 09:47:19;;;;;;;16.20;5.20;;;;;;;5.82;65.33;102373.07;106735;1276;26509;-57
2023/01/12 09:50:09;;;;;;;14.20;4.60;;;;;;;5.81;65.21;102368.39;106219;1269;1003217;-57
2023/01/12 09:52:47;;;;;;;15.60;4.60;;;;;;;5.80;65.18;102371.63;106910;1269;25348;-57
2023/01/12 09:55:19;;;;;;;11.60;4.50;;;;;;;5.79;65.08;102374.36;106179;1269;1003597;-57
2023/01/12 09:58:05;;;;;;;15.40;4.30;;;;;;;5.78;64.78;102374.85;106764;1276;24298;-57
2023/01/12 10:00:34;;;;;;;11.20;5.50;;;;;;;5.74;64.84;102375.64;107069;1269;25350;-57
2023/01/12 10:03:06;;;;;;;30.30;5.90;;;;;;;5.75;64.89;102373.74;106896;1273;25528;-57
2023/01/12 10:05:53;;;;;;;29.10;6.30;;;;;;;5.77;64.72;102366.39;106922;1270;22644;-57
2023/01/12 10:08:32;;;;;;;21.10;4.30;;;;;;;5.80;64.73;102361.98;106795;1275;25500;-57
2023/01/12 10:11:27;;;;;;;16.10;3.60;;;;;;;5.81;64.76;102354.96;106837;1270;25410;-57
2023/01/12 10:14:00;;;;;;;14.70;4.60;;;;;;;5.82;64.76;102355.66;106896;1269;25373;-57
2023/01/12 10:17:00;;;;;;;14.00;3.70;;;;;;;5.83;64.71;102355.52;105982;1265;1003130;-57
2023/01/12 10:19:38;;;;;;;15.10;3.80;;;;;;;5.82;64.54;102349.82;105484;1266;1003041;-57
2023/01/12 10:22:38;;;;;;;19.50;4.90;;;;;;;5.80;64.40;102348.05;106332;1283;22938;-57
2023/01/12 10:25:30;;;;;;;14.90;4.90;;;;;;;5.81;64.24;102342.05;106323;1278;25502;-57
2023/01/12 10:27:58;;;;;;;21.30;6.10;;;;;;;5.80;64.20;102343.56;106283;1282;25370;-57
2023/01/12 10:30:35;;;;;;;15.40;5.70;;;;;;;5.81;64.31;102340.84;106256;1282;25484;-56
2023/01/12 16:42:46;;;;;;;14.10;7.30;;;;;;;2.99;79.38;102366.04;104946;1295;560327;-50
2023/01/12 16:45:14;;;;;;;14.00;7.60;;;;;;;4.02;74.28;102358.55;106070;1281;25422;-50
2023/01/12 16:47:41;;;;;;;24.30;7.90;;;;;;;4.20;72.95;102357.73;105486;1282;1003037;-51
2023/01/12 16:50:08;;;;;;;15.80;7.30;;;;;;;4.29;72.43;102354.40;106195;1280;25547;-50
2023/01/12 16:52:36;;;;;;;14.00;6.10;;;;;;;4.37;72.00;102352.57;106361;1280;25497;-50
2023/01/12 16:55:06;;;;;;;16.00;6.30;;;;;;;4.44;71.51;102354.31;106178;1280;204950;-50
2023/01/12 16:57:33;;;;;;;16.80;5.80;;;;;;;4.51;71.54;102354.69;106311;1278;22533;-51
2023/01/12 17:00:01;;;;;;;10.60;6.00;;;;;;;4.56;71.07;102356.05;105611;1277;1016045;-50
2023/01/12 17:02:30;;;;;;;13.20;5.90;;;;;;;4.61;70.67;102360.46;106037;1278;25360;-51
2023/01/12 17:04:58;;;;;;;14.90;5.40;;;;;;;4.65;70.03;102363.17;106348;1277;22652;-50
2023/01/12 17:07:26;;;;;;;13.70;6.70;;;;;;;4.67;69.98;102364.92;106418;1277;25409;-51
2023/01/12 17:09:53;;;;;;;21.60;8.50;;;;;;;4.72;69.77;102365.94;105541;1278;1003825;-50
2023/01/12 17:12:20;;;;;;;21.00;7.90;;;;;;;4.77;69.41;102367.98;106073;1279;25421;-50
2023/01/12 17:14:48;;;;;;;17.00;7.10;;;;;;;4.81;69.19;102362.58;106343;1277;25379;-51
2023/01/12 17:17:15;;;;;;;16.60;5.70;;;;;;;4.84;68.86;102366.44;106224;1278;25360;-51
2023/01/12 17:19:43;;;;;;;10.80;5.10;;;;;;;4.87;68.65;102361.19;105607;1278;1003133;-50
2023/01/12 17:22:11;;;;;;;11.80;5.20;;;;;;;4.89;68.41;102367.61;106383;1278;25518;-50
2023/01/12 17:24:39;;;;;;;11.90;5.10;;;;;;;4.90;68.07;102362.31;105669;1278;1002991;-50
2023/01/12 17:27:07;;;;;;;8.30;4.90;;;;;;;4.93;67.95;102358.42;105765;1285;25487;-49
2023/01/12 17:29:34;;;;;;;11.00;4.90;;;;;;;4.96;67.77;102353.86;106419;1278;25406;-50
2023/01/12 17:32:02;;;;;;;10.50;5.00;;;;;;;5.00;67.55;102350.35;106287;1278;24313;-50
2023/01/12 17:34:31;;;;;;;11.30;4.40;;;;;;;5.04;67.31;102352.34;106189;1282;25258;-51
2023/01/12 17:37:01;;;;;;;11.30;4.70;;;;;;;5.06;67.36;102350.86;106112;1279;22545;-50
2023/01/12 17:39:29;;;;;;;7.50;4.80;;;;;;;5.11;67.26;102348.57;106376;1285;25381;-50
2023/01/12 17:44:42;;;;;;;13.70;5.10;;;;;;;5.16;67.10;102345.94;106053;1281;24271;-50
2023/01/12 17:47:10;;;;;;;10.70;5.70;;;;;;;5.19;66.90;102343.63;106359;1278;25342;-50
2023/01/12 17:49:37;;;;;;;11.90;5.20;;;;;;;5.22;66.80;102340.09;106034;1277;25390;-50
2023/01/12 17:52:04;;;;;;;11.40;5.60;;;;;;;5.23;66.85;102338.20;105645;1277;1003382;-50
2023/01/12 17:54:32;;;;;;;9.60;5.00;;;;;;;5.16;66.87;102338.73;106388;1277;25370;-50
2023/01/12 17:57:00;;;;;;;13.80;6.00;;;;;;;4.98;67.48;102334.14;105554;1285;1003395;-50
2023/01/12 17:59:27;;;;;;;13.70;4.80;;;;;;;4.95;67.59;102332.52;106433;1281;24272;-49
2023/01/12 18:01:55;;;;;;;15.00;6.00;;;;;;;4.95;67.43;102335.78;105791;1284;25802;-50
2023/01/12 18:04:22;;;;;;;13.10;6.50;;;;;;;4.96;67.56;102328.92;106346;1278;22544;-50
2023/01/12 18:06:49;;;;;;;15.50;6.20;;;;;;;5.09;67.36;102326.01;106260;1278;25373;-51
2023/01/12 18:09:16;;;;;;;18.20;7.40;;;;;;;5.25;66.93;102329.33;105223;1281;1002949;-50
2023/01/12 18:11:43;;;;;;;22.20;7.90;;;;;;;5.29;66.63;102324.25;106072;1279;25388;-50
2023/01/12 18:14:11;;;;;;;17.00;6.90;;;;;;;5.30;66.52;102315.34;107138;1267;25393;-50
2023/01/12 18:16:38;;;;;;;16.30;5.80;;;;;;;5.30;66.44;102318.42;107168;1256;25382;-49
2023/01/12 18:19:07;;;;;;;13.80;7.20;;;;;;;5.30;66.55;102324.30;107061;1268;24045;-50
2023/01/12 18:21:34;;;;;;;19.90;8.80;;;;;;;5.29;66.65;102321.86;106325;1267;1003654;-50
2023/01/12 18:24:02;;;;;;;21.10;7.30;;;;;;;5.10;67.12;102321.72;107053;1267;25338;-50
2023/01/12 18:26:30;;;;;;;14.10;6.30;;;;;;;5.08;67.42;102317.20;107079;1268;25506;-50
2023/01/12 18:28:57;;;;;;;16.30;5.80;;;;;;;5.06;67.27;102318.88;107172;1267;22751;-50
2023/01/12 18:31:27;;;;;;;17.40;6.20;;;;;;;5.07;67.43;102325.09;107199;1267;25427;-50
2023/01/12 18:34:03;;;;;;;17.80;5.80;;;;;;;5.30;66.65;102324.27;107052;1269;25354;-51
2023/01/12 18:36:37;;;;;;;17.90;6.50;;;;;;;5.37;66.38;102329.98;107113;1267;27216;-50
2023/01/12 18:39:06;;;;;;;16.80;6.20;;;;;;;5.39;66.32;102335.19;107063;1268;22526;-51
2023/01/12 18:44:23;;;;;;;19.90;8.20;;;;;;;5.41;65.98;102328.69;107178;1268;24338;-50
2023/01/12 18:49:38;;;;;;;16.20;6.80;;;;;;;5.44;66.05;102342.89;106355;1267;1003045;-49
2023/01/12 18:54:52;;;;;;;18.90;6.30;;;;;;;5.45;65.68;102336.71;107132;1266;25400;-50
2023/01/12 18:57:22;;;;;;;12.70;5.10;;;;;;;5.26;66.37;102343.10;106460;1269;1003108;-50
2023/01/12 18:59:51;;;;;;;13.40;5.80;;;;;;;5.24;66.40;102339.77;107205;1268;25360;-50
2023/01/12 19:02:18;;;;;;;11.10;5.10;;;;;;;5.45;65.75;102338.94;107005;1274;25402;-50
2023/01/12 19:07:42;;;;;;;13.00;5.80;;;;;;;5.58;65.24;102337.03;106918;1270;25351;-50
2023/01/12 19:10:10;;;;;;;10.10;4.40;;;;;;;5.62;65.09;102331.61;106982;1266;25476;-50
2023/01/12 19:12:37;;;;;;;11.10;4.90;;;;;;;5.62;64.89;102337.82;107048;1269;26561;-51
2023/01/12 19:17:51;;;;;;;12.60;5.40;;;;;;;5.63;64.66;102343.52;107052;1268;25408;-50
2023/01/12 19:20:19;;;;;;;11.70;4.90;;;;;;;5.65;64.58;102345.27;107192;1268;25360;-50
2023/01/12 19:28:39;;;;;;;14.20;5.30;;;;;;;5.67;64.34;102340.17;105856;1273;1002855;-50
2023/01/12 19:31:09;;;;;;;10.60;5.00;;;;;;;5.70;64.28;102336.45;106690;1272;23809;-50
2023/01/12 19:33:37;;;;;;;11.20;4.40;;;;;;;5.72;64.05;102338.56;106994;1269;25332;-50
2023/01/12 19:36:06;;;;;;;13.30;5.30;;;;;;;5.73;63.90;102342.20;106908;1270;25462;-50
2023/01/12 19:38:34;;;;;;;12.80;4.30;;;;;;;5.76;63.81;102338.82;106842;1270;25415;-51
2023/01/12 19:41:09;;;;;;;10.90;5.20;;;;;;;5.77;63.62;102333.16;107149;1267;24385;-50
2023/01/12 19:43:39;;;;;;;13.40;5.40;;;;;;;5.77;63.60;102331.77;106865;1269;25464;-50
2023/01/12 19:46:07;;;;;;;7.50;4.30;;;;;;;5.62;64.02;102326.96;107047;1268;22523;-52
2023/01/12 19:48:34;;;;;;;13.20;6.10;;;;;;;5.51;64.49;102329.96;107084;1267;24304;-51
2023/01/12 19:51:06;;;;;;;10.50;4.30;;;;;;;5.49;64.47;102332.66;106862;1269;28713;-51
2023/01/12 19:53:39;;;;;;;12.10;4.60;;;;;;;5.48;64.42;102333.52;107063;1266;25402;-51
2023/01/12 19:56:09;;;;;;;9.00;4.40;;;;;;;5.48;64.54;102338.51;107114;1267;24216;-51
2023/01/12 19:58:37;;;;;;;;;;;;;;;5.49;64.59;102340.59;106822;1268;25330;-49
2023/01/12 20:01:04;;;;;;;14.00;5.80;;;;;;;5.48;64.46;102338.52;106848;1274;22523;-51
2023/01/12 20:03:32;;;;;;;18.70;7.00;;;;;;;5.47;64.50;102343.29;107123;1268;25382;-51
2023/01/12 20:06:04;;;;;;;14.90;6.30;;;;;;;5.51;64.24;102345.45;106374;1270;1003798;-51
2023/01/12 20:08:31;;;;;;;12.70;5.90;;;;;;;5.70;63.54;102342.81;107092;1268;25275;-51
2023/01/12 20:10:59;;;;;;;16.90;5.10;;;;;;;5.72;63.37;102340.45;106398;1269;1003347;-51
2023/01/12 20:13:29;;;;;;;8.80;3.70;;;;;;;5.56;63.86;102343.52;107056;1269;25340;-51
2023/01/12 20:15:57;;;;;;;9.60;4.30;;;;;;;5.59;63.84;102346.00;107126;1266;25332;-51
2023/01/12 20:18:25;;;;;;;15.10;4.60;;;;;;;5.71;63.35;102349.91;106110;1269;1002832;-52
2023/01/12 20:20:57;;;;;;;10.90;4.30;;;;;;;5.75;63.08;102350.17;107196;1266;25494;-52
2023/01/12 20:23:24;;;;;;;11.40;4.90;;;;;;;5.77;63.05;102347.81;107038;1267;23250;-50
2023/01/12 20:25:51;;;;;;;10.80;4.10;;;;;;;5.79;63.00;102347.66;107065;1272;22523;-51
2023/01/12 20:28:19;;;;;;;9.80;4.80;;;;;;;5.80;62.94;102343.73;106284;1269;1002880;-51
2023/01/12 20:30:46;;;;;;;10.20;4.00;;;;;;;5.80;62.85;102349.95;106796;1269;25386;-51
2023/01/12 20:33:13;;;;;;;19.90;4.90;;;;;;;5.81;62.87;102343.27;107108;1270;22548;-51
2023/01/12 20:35:45;;;;;;;7.80;4.00;;;;;;;5.81;62.73;102341.88;106936;1274;24261;-51
2023/01/12 20:38:14;;;;;;;12.70;5.00;;;;;;;5.79;62.67;102347.84;106990;1268;22530;-51
2023/01/12 20:40:45;;;;;;;13.20;5.20;;;;;;;5.76;62.84;102350.70;106786;1267;26685;-51
2023/01/12 20:43:12;;;;;;;15.60;5.80;;;;;;;5.76;62.82;102345.55;107055;1268;25321;-50
2023/01/12 20:45:40;;;;;;;9.20;4.80;;;;;;;5.67;62.94;102342.08;106979;1273;25377;-50
2023/01/12 20:48:08;;;;;;;10.10;4.70;;;;;;;5.63;62.98;102340.41;107116;1268;22552;-51
2023/01/12 20:50:35;;;;;;;8.70;4.30;;;;;;;5.70;62.62;102340.41;107027;1268;25365;-50
2023/01/12 20:53:03;;;;;;;15.70;5.10;;;;;;;5.69;62.57;102347.80;107065;1268;25336;-49
2023/01/12 20:55:30;;;;;;;10.60;4.60;;;;;;;5.68;62.66;102344.30;107045;1269;25444;-50
2023/01/12 20:57:57;;;;;;;8.00;3.80;;;;;;;5.67;62.50;102351.02;106287;1272;1002926;-50
2023/01/12 21:00:26;;;;;;;9.20;4.40;;;;;;;5.65;62.54;102361.81;106807;1274;22529;-50
2023/01/12 21:02:53;;;;;;;7.70;4.10;;;;;;;5.64;62.60;102363.16;107196;1267;25380;-50
2023/01/12 21:05:20;;;;;;;9.90;4.40;;;;;;;5.62;62.58;102360.55;107031;1268;25332;-50
2023/01/12 21:07:48;;;;;;;13.90;6.00;;;;;;;5.63;62.68;102361.58;106854;1267;25362;-50
2023/01/12 21:10:20;;;;;;;9.50;4.50;;;;;;;5.64;62.66;102373.16;106937;1267;24329;-50
2023/01/12 21:12:47;;;;;;;8.20;4.20;;;;;;;5.66;62.61;102376.48;107062;1269;22538;-51
2023/01/12 21:15:16;;;;;;;14.10;5.60;;;;;;;5.67;62.48;102377.34;106803;1274;22533;-50
2023/01/12 21:17:46;;;;;;;6.80;3.90;;;;;;;5.68;62.55;102377.20;107060;1268;25442;-50
2023/01/12 21:20:13;;;;;;;12.50;4.30;;;;;;;5.69;62.56;102378.42;106939;1269;24207;-50
2023/01/12 21:22:41;;;;;;;8.80;4.40;;;;;;;5.68;62.49;102376.52;107070;1271;25366;-50
2023/01/12 21:25:09;;;;;;;8.60;4.40;;;;;;;5.68;62.52;102381.16;107065;1267;25481;-50
2023/01/12 21:27:36;;;;;;;9.80;4.70;;;;;;;5.68;62.56;102379.10;107123;1267;25519;-51
2023/01/12 21:30:04;;;;;;;8.80;4.30;;;;;;;5.68;62.51;102376.52;107006;1267;25339;-50
2023/01/12 21:32:31;;;;;;;12.10;4.60;;;;;;;5.66;62.48;102377.67;107023;1269;22530;-51
2023/01/12 21:34:58;;;;;;;13.50;5.10;;;;;;;5.65;62.59;102370.41;107096;1268;25312;-50
2023/01/12 21:37:26;;;;;;;13.40;4.90;;;;;;;5.65;62.61;102367.84;107200;1269;25574;-51
2023/01/12 21:39:53;;;;;;;10.30;5.60;;;;;;;5.63;62.47;102372.27;106991;1275;25421;-50
2023/01/12 21:45:10;;;;;;;11.30;5.70;;;;;;;5.46;62.20;102377.52;107018;1272;25321;-50
2023/01/12 21:47:37;;;;;;;12.80;5.50;;;;;;;5.37;62.28;102379.88;107071;1271;22521;-50
2023/01/12 21:50:06;;;;;;;8.40;5.10;;;;;;;5.27;62.37;102376.00;106898;1269;25360;-50
2023/01/12 21:52:33;;;;;;;11.00;5.30;;;;;;;5.19;62.37;102370.98;106871;1272;24218;-50
2023/01/12 21:55:00;;;;;;;10.80;5.10;;;;;;;5.11;62.44;102366.13;107204;1267;25382;-50
2023/01/12 21:57:27;;;;;;;12.50;5.70;;;;;;;5.05;62.62;102362.19;106840;1272;25383;-50
2023/01/12 21:59:55;;;;;;;13.20;7.00;;;;;;;5.00;62.76;102359.80;107148;1268;22530;-50
2023/01/12 22:02:22;;;;;;;9.30;6.10;;;;;;;4.94;62.63;102360.17;107108;1270;25407;-50
2023/01/12 22:04:49;;;;;;;10.60;5.50;;;;;;;4.88;62.69;102360.86;106897;1270;23857;-51
2023/01/12 22:07:17;;;;;;;8.20;6.00;;;;;;;4.83;62.91;102365.05;107087;1266;25479;-51
2023/01/12 22:09:44;;;;;;;16.60;5.50;;;;;;;4.79;63.10;102363.02;107005;1272;23127;-50
2023/01/12 22:12:11;;;;;;;11.50;6.10;;;;;;;4.75;63.11;102359.66;107101;1268;25351;-50
2023/01/12 22:14:42;;;;;;;11.80;6.20;;;;;;;4.71;62.95;102349.06;107161;1270;25471;-50
2023/01/12 22:17:09;;;;;;;12.60;6.40;;;;;;;4.65;63.01;102347.02;106594;1275;25386;-51
2023/01/12 22:19:36;;;;;;;15.30;7.00;;;;;;;4.60;63.14;102340.67;107124;1272;25364;-51
2023/01/12 22:22:06;;;;;;;13.60;6.90;;;;;;;4.55;63.21;102339.50;106313;1270;1003664;-51
2023/01/12 22:24:33;;;;;;;13.50;6.90;;;;;;;4.51;63.26;102335.27;106079;1269;1003430;-50
2023/01/12 22:27:02;;;;;;;14.00;6.60;;;;;;;4.47;63.35;102330.00;107199;1267;25396;-51
2023/01/12 22:29:30;;;;;;;11.70;6.60;;;;;;;4.44;63.55;102328.53;106830;1270;25350;-50
2023/01/12 22:31:57;;;;;;;16.20;7.10;;;;;;;4.43;63.89;102335.39;107092;1268;25332;-50
2023/01/12 22:34:25;;;;;;;10.20;6.80;;;;;;;4.44;64.08;102335.76;107111;1269;25354;-51
2023/01/12 22:36:52;;;;;;;14.00;6.30;;;;;;;4.44;64.22;102334.21;107151;1267;22537;-51
2023/01/12 22:39:19;;;;;;;12.50;6.60;;;;;;;4.42;64.04;102326.59;106243;1272;1003000;-50
2023/01/12 22:41:49;;;;;;;16.30;8.00;;;;;;;4.39;63.95;102325.64;107176;1269;25394;-51
2023/01/12 22:44:16;;;;;;;15.50;8.10;;;;;;;4.33;63.98;102324.80;107220;1271;25545;-50
2023/01/12 22:46:44;;;;;;;17.60;7.40;;;;;;;4.29;63.88;102322.09;107095;1267;25356;-52
2023/01/12 22:49:11;;;;;;;16.90;7.60;;;;;;;4.27;63.93;102319.63;107104;1267;23263;-51
2023/01/12 22:51:38;;;;;;;17.00;7.10;;;;;;;4.25;64.12;102321.29;107025;1269;25322;-51
2023/01/12 22:54:05;;;;;;;13.20;7.30;;;;;;;4.23;64.04;102320.19;107018;1273;25512;-51
2023/01/12 22:56:32;;;;;;;15.40;7.60;;;;;;;4.18;63.86;102321.77;106864;1267;22661;-51
2023/01/12 22:59:00;;;;;;;13.90;7.60;;;;;;;4.14;63.98;102320.61;107098;1267;25379;-52
2023/01/12 23:01:27;;;;;;;13.60;8.20;;;;;;;4.09;63.98;102319.27;107163;1267;25332;-49
2023/01/12 23:03:54;;;;;;;20.20;8.80;;;;;;;4.05;63.96;102316.74;107075;1268;22526;-51
2023/01/12 23:06:22;;;;;;;15.20;7.20;;;;;;;4.01;63.88;102318.00;106055;1268;1002861;-51
2023/01/12 23:08:49;;;;;;;17.40;7.90;;;;;;;3.98;63.86;102321.34;106827;1269;25326;-51
2023/01/12 23:11:19;;;;;;;21.20;7.70;;;;;;;3.95;64.16;102325.03;107040;1270;23894;-52
2023/01/12 23:13:46;;;;;;;12.90;7.00;;;;;;;3.94;64.24;102325.67;107089;1267;24211;-51
2023/01/12 23:16:14;;;;;;;15.30;7.40;;;;;;;3.94;64.32;102329.98;107133;1269;25400;-51
2023/01/12 23:18:42;;;;;;;13.50;7.60;;;;;;;3.94;64.27;102332.04;107121;1271;22578;-51
2023/01/12 23:21:25;;;;;;;14.40;7.80;;;;;;;3.94;64.28;102327.59;107032;1271;24195;-52
2023/01/12 23:23:56;;;;;;;11.90;7.60;;;;;;;3.93;64.35;102329.60;107142;1267;25450;-51
2023/01/12 23:26:24;;;;;;;;;;;;;;;3.91;64.25;102330.05;106285;1267;1003463;-49
2023/01/12 23:28:54;;;;;;;18.90;7.60;;;;;;;3.88;64.40;102326.71;106315;1267;1002950;-51
2023/01/12 23:31:23;;;;;;;16.50;7.90;;;;;;;3.86;64.24;102324.58;107171;1267;22528;-51
2023/01/12 23:33:51;;;;;;;19.00;7.50;;;;;;;3.83;64.40;102325.88;106836;1275;25332;-51
2023/01/12 23:36:20;;;;;;;15.20;8.10;;;;;;;3.82;64.46;102325.50;107121;1270;25363;-51
2023/01/12 23:38:50;;;;;;;11.80;7.20;;;;;;;3.82;64.66;102324.27;107138;1270;25347;-52
2023/01/12 23:41:19;;;;;;;19.80;8.10;;;;;;;3.80;64.63;102326.82;106893;1274;25435;-51
2023/01/12 23:43:47;;;;;;;19.30;8.30;;;;;;;3.79;64.62;102320.77;106887;1268;22617;-51
2023/01/12 23:46:20;;;;;;;15.80;7.80;;;;;;;3.78;64.79;102319.36;107007;1269;24349;-51
2023/01/12 23:48:53;;;;;;;19.00;8.40;;;;;;;3.78;64.98;102323.80;107144;1268;25466;-52
2023/01/12 23:51:20;;;;;;;15.90;8.30;;;;;;;3.78;64.90;102334.48;106376;1267;1003068;-50
2023/01/12 23:53:50;;;;;;;13.50;7.30;;;;;;;3.78;64.99;102338.05;107125;1267;26627;-51
2023/01/12 23:56:17;;;;;;;19.50;7.50;;;;;;;3.78;65.06;102334.97;107074;1267;22528;-50
2023/01/12 23:58:46;;;;;;;12.50;8.00;;;;;;;3.78;65.21;102336.02;106371;1267;1003129;-51
